sensor_id;sensor_type;location;lat;lon;timestamp;temperature;humidity
19340;HTU21D;9804;52.350;6.684;2022-10-30T00:02:24;18.89;-6.00
19340;HTU21D;9804;52.350;6.684;2022-10-30T00:04:49;18.77;-6.00
19340;HTU21D;9804;52.350;6.684;2022-10-30T00:07:15;18.74;-6.00
19340;HTU21D;9804;52.350;6.684;2022-10-30T00:09:40;18.70;-6.00
19340;HTU21D;9804;52.350;6.684;2022-10-30T00:12:05;18.73;-6.00
19340;HTU21D;9804;52.350;6.684;2022-10-30T00:14:31;18.66;-6.00
19340;HTU21D;9804;52.350;6.684;2022-10-30T00:16:56;18.61;-6.00
19340;HTU21D;9804;52.350;6.684;2022-10-30T00:19:21;18.57;-6.00
19340;HTU21D;9804;52.350;6.684;2022-10-30T00:21:47;18.49;-6.00
19340;HTU21D;9804;52.350;6.684;2022-10-30T00:24:12;18.42;-6.00
19340;HTU21D;9804;52.350;6.684;2022-10-30T00:26:37;18.32;-6.00
19340;HTU21D;9804;52.350;6.684;2022-10-30T00:29:03;18.36;-6.00
19340;HTU21D;9804;52.350;6.684;2022-10-30T00:31:28;18.28;-6.00
19340;HTU21D;9804;52.350;6.684;2022-10-30T00:33:53;18.23;-6.00
19340;HTU21D;9804;52.350;6.684;2022-10-30T00:36:20;18.17;-6.00
19340;HTU21D;9804;52.350;6.684;2022-10-30T00:38:45;18.09;-6.00
19340;HTU21D;9804;52.350;6.684;2022-10-30T00:41:14;18.05;-6.00
19340;HTU21D;9804;52.350;6.684;2022-10-30T00:43:40;17.98;-6.00
19340;HTU21D;9804;52.350;6.684;2022-10-30T00:46:15;17.88;-6.00
19340;HTU21D;9804;52.350;6.684;2022-10-30T00:48:46;17.77;-6.00
19340;HTU21D;9804;52.350;6.684;2022-10-30T00:51:12;17.72;-6.00
19340;HTU21D;9804;52.350;6.684;2022-10-30T00:53:39;17.65;-6.00
19340;HTU21D;9804;52.350;6.684;2022-10-30T00:56:06;17.58;-6.00
19340;HTU21D;9804;52.350;6.684;2022-10-30T00:58:36;17.52;-6.00
19340;HTU21D;9804;52.350;6.684;2022-10-30T01:01:06;17.46;-6.00
19340;HTU21D;9804;52.350;6.684;2022-10-30T01:03:33;17.46;-6.00
19340;HTU21D;9804;52.350;6.684;2022-10-30T01:06:03;17.40;-6.00
19340;HTU21D;9804;52.350;6.684;2022-10-30T01:08:29;17.39;-6.00
19340;HTU21D;9804;52.350;6.684;2022-10-30T01:10:57;17.36;-6.00
19340;HTU21D;9804;52.350;6.684;2022-10-30T01:13:23;17.35;-6.00
19340;HTU21D;9804;52.350;6.684;2022-10-30T01:18:41;17.30;-6.00
19340;HTU21D;9804;52.350;6.684;2022-10-30T01:29:38;17.38;-6.00
19340;HTU21D;9804;52.350;6.684;2022-10-30T01:35:10;17.36;-6.00
19340;HTU21D;9804;52.350;6.684;2022-10-30T01:40:23;17.43;-6.00
19340;HTU21D;9804;52.350;6.684;2022-10-30T01:42:56;17.40;-6.00
19340;HTU21D;9804;52.350;6.684;2022-10-30T01:54:16;17.49;-6.00
19340;HTU21D;9804;52.350;6.684;2022-10-30T02:02:21;17.55;-6.00
19340;HTU21D;9804;52.350;6.684;2022-10-30T02:04:47;17.59;-6.00
19340;HTU21D;9804;52.350;6.684;2022-10-30T02:07:12;17.61;-6.00
19340;HTU21D;9804;52.350;6.684;2022-10-30T02:09:38;17.75;-6.00
19340;HTU21D;9804;52.350;6.684;2022-10-30T02:12:04;17.74;-6.00
19340;HTU21D;9804;52.350;6.684;2022-10-30T02:14:32;17.67;-6.00
19340;HTU21D;9804;52.350;6.684;2022-10-30T02:17:03;17.77;-6.00
19340;HTU21D;9804;52.350;6.684;2022-10-30T02:19:29;17.68;-6.00
19340;HTU21D;9804;52.350;6.684;2022-10-30T02:21:55;17.63;-6.00
19340;HTU21D;9804;52.350;6.684;2022-10-30T02:24:20;17.60;-6.00
19340;HTU21D;9804;52.350;6.684;2022-10-30T02:26:46;17.51;-6.00
19340;HTU21D;9804;52.350;6.684;2022-10-30T02:29:11;17.53;-6.00
19340;HTU21D;9804;52.350;6.684;2022-10-30T02:31:37;17.48;-6.00
19340;HTU21D;9804;52.350;6.684;2022-10-30T02:34:02;17.35;-6.00
19340;HTU21D;9804;52.350;6.684;2022-10-30T02:36:28;17.29;-6.00
19340;HTU21D;9804;52.350;6.684;2022-10-30T02:38:53;17.29;-6.00
19340;HTU21D;9804;52.350;6.684;2022-10-30T02:41:21;17.23;-6.00
19340;HTU21D;9804;52.350;6.684;2022-10-30T02:43:46;17.16;-6.00
19340;HTU21D;9804;52.350;6.684;2022-10-30T02:46:12;17.10;-6.00
19340;HTU21D;9804;52.350;6.684;2022-10-30T02:48:37;17.05;-6.00
19340;HTU21D;9804;52.350;6.684;2022-10-30T02:51:03;16.94;-6.00
19340;HTU21D;9804;52.350;6.684;2022-10-30T02:53:30;16.89;-6.00
19340;HTU21D;9804;52.350;6.684;2022-10-30T02:55:55;16.81;-6.00
19340;HTU21D;9804;52.350;6.684;2022-10-30T02:58:21;16.75;-6.00
19340;HTU21D;9804;52.350;6.684;2022-10-30T03:00:46;16.72;-6.00
19340;HTU21D;9804;52.350;6.684;2022-10-30T03:03:12;16.74;-6.00
19340;HTU21D;9804;52.350;6.684;2022-10-30T03:05:37;16.72;-6.00
19340;HTU21D;9804;52.350;6.684;2022-10-30T03:08:02;16.77;-6.00
19340;HTU21D;9804;52.350;6.684;2022-10-30T03:10:28;16.75;-6.00
19340;HTU21D;9804;52.350;6.684;2022-10-30T03:12:53;16.72;-6.00
19340;HTU21D;9804;52.350;6.684;2022-10-30T03:15:19;16.64;-6.00
19340;HTU21D;9804;52.350;6.684;2022-10-30T03:17:44;16.59;-6.00
19340;HTU21D;9804;52.350;6.684;2022-10-30T03:20:10;16.56;-6.00
19340;HTU21D;9804;52.350;6.684;2022-10-30T03:22:36;16.58;-6.00
19340;HTU21D;9804;52.350;6.684;2022-10-30T03:25:01;16.61;-6.00
19340;HTU21D;9804;52.350;6.684;2022-10-30T03:27:26;16.52;-6.00
19340;HTU21D;9804;52.350;6.684;2022-10-30T03:29:51;16.60;-6.00
19340;HTU21D;9804;52.350;6.684;2022-10-30T03:32:17;16.54;-6.00
19340;HTU21D;9804;52.350;6.684;2022-10-30T03:34:42;16.59;-6.00
19340;HTU21D;9804;52.350;6.684;2022-10-30T03:37:08;16.59;-6.00
19340;HTU21D;9804;52.350;6.684;2022-10-30T03:39:33;16.54;-6.00
19340;HTU21D;9804;52.350;6.684;2022-10-30T03:41:58;16.54;-6.00
19340;HTU21D;9804;52.350;6.684;2022-10-30T03:44:24;16.54;-6.00
19340;HTU21D;9804;52.350;6.684;2022-10-30T03:46:49;16.51;-6.00
19340;HTU21D;9804;52.350;6.684;2022-10-30T03:49:14;16.49;-6.00
19340;HTU21D;9804;52.350;6.684;2022-10-30T03:51:39;16.43;-6.00
19340;HTU21D;9804;52.350;6.684;2022-10-30T03:54:05;16.36;-6.00
19340;HTU21D;9804;52.350;6.684;2022-10-30T03:56:30;16.29;-6.00
19340;HTU21D;9804;52.350;6.684;2022-10-30T03:58:55;16.24;-6.00
19340;HTU21D;9804;52.350;6.684;2022-10-30T04:01:21;16.19;-6.00
19340;HTU21D;9804;52.350;6.684;2022-10-30T04:03:46;16.26;-6.00
19340;HTU21D;9804;52.350;6.684;2022-10-30T04:06:12;16.22;-6.00
19340;HTU21D;9804;52.350;6.684;2022-10-30T04:08:37;16.26;-6.00
19340;HTU21D;9804;52.350;6.684;2022-10-30T04:11:02;16.31;-6.00
19340;HTU21D;9804;52.350;6.684;2022-10-30T04:13:28;16.25;-6.00
19340;HTU21D;9804;52.350;6.684;2022-10-30T04:15:53;16.21;-6.00
19340;HTU21D;9804;52.350;6.684;2022-10-30T04:18:19;16.12;-6.00
19340;HTU21D;9804;52.350;6.684;2022-10-30T04:20:44;16.07;-6.00
19340;HTU21D;9804;52.350;6.684;2022-10-30T04:23:13;15.93;-6.00
19340;HTU21D;9804;52.350;6.684;2022-10-30T04:25:39;15.98;-6.00
19340;HTU21D;9804;52.350;6.684;2022-10-30T04:28:04;15.93;-6.00
19340;HTU21D;9804;52.350;6.684;2022-10-30T04:30:30;15.89;-6.00
19340;HTU21D;9804;52.350;6.684;2022-10-30T04:33:00;15.82;-6.00
19340;HTU21D;9804;52.350;6.684;2022-10-30T04:35:27;15.76;-6.00
19340;HTU21D;9804;52.350;6.684;2022-10-30T04:38:00;15.73;-6.00
19340;HTU21D;9804;52.350;6.684;2022-10-30T04:40:28;15.69;-6.00
19340;HTU21D;9804;52.350;6.684;2022-10-30T04:42:54;15.68;-6.00
19340;HTU21D;9804;52.350;6.684;2022-10-30T04:45:20;15.67;-6.00
19340;HTU21D;9804;52.350;6.684;2022-10-30T04:47:45;15.65;-6.00
19340;HTU21D;9804;52.350;6.684;2022-10-30T04:50:11;15.61;-6.00
19340;HTU21D;9804;52.350;6.684;2022-10-30T04:52:36;15.60;-6.00
19340;HTU21D;9804;52.350;6.684;2022-10-30T04:55:02;15.60;-6.00
19340;HTU21D;9804;52.350;6.684;2022-10-30T04:57:28;15.57;-6.00
19340;HTU21D;9804;52.350;6.684;2022-10-30T04:59:55;15.56;-6.00
19340;HTU21D;9804;52.350;6.684;2022-10-30T05:02:20;15.52;-6.00
19340;HTU21D;9804;52.350;6.684;2022-10-30T05:04:46;15.51;-6.00
19340;HTU21D;9804;52.350;6.684;2022-10-30T05:07:14;15.44;-6.00
19340;HTU21D;9804;52.350;6.684;2022-10-30T05:09:41;15.34;-6.00
19340;HTU21D;9804;52.350;6.684;2022-10-30T05:12:06;15.32;-6.00
19340;HTU21D;9804;52.350;6.684;2022-10-30T05:14:32;15.30;-6.00
19340;HTU21D;9804;52.350;6.684;2022-10-30T05:16:58;15.30;-6.00
19340;HTU21D;9804;52.350;6.684;2022-10-30T05:19:24;15.36;-6.00
19340;HTU21D;9804;52.350;6.684;2022-10-30T05:21:49;15.37;-6.00
19340;HTU21D;9804;52.350;6.684;2022-10-30T05:24:15;15.37;-6.00
19340;HTU21D;9804;52.350;6.684;2022-10-30T05:26:40;15.38;-6.00
19340;HTU21D;9804;52.350;6.684;2022-10-30T05:29:05;15.34;-6.00
19340;HTU21D;9804;52.350;6.684;2022-10-30T05:31:31;15.32;-6.00
19340;HTU21D;9804;52.350;6.684;2022-10-30T05:33:56;15.30;-6.00
19340;HTU21D;9804;52.350;6.684;2022-10-30T05:36:21;15.27;-6.00
19340;HTU21D;9804;52.350;6.684;2022-10-30T05:38:47;15.30;-6.00
19340;HTU21D;9804;52.350;6.684;2022-10-30T05:41:12;15.27;-6.00
19340;HTU21D;9804;52.350;6.684;2022-10-30T05:43:38;15.30;-6.00
19340;HTU21D;9804;52.350;6.684;2022-10-30T05:46:03;15.29;-6.00
19340;HTU21D;9804;52.350;6.684;2022-10-30T05:48:28;15.18;-6.00
19340;HTU21D;9804;52.350;6.684;2022-10-30T05:50:55;15.12;-6.00
19340;HTU21D;9804;52.350;6.684;2022-10-30T05:53:21;15.06;-6.00
19340;HTU21D;9804;52.350;6.684;2022-10-30T05:55:46;14.98;-6.00
19340;HTU21D;9804;52.350;6.684;2022-10-30T05:58:12;14.98;-6.00
19340;HTU21D;9804;52.350;6.684;2022-10-30T06:00:37;14.96;-6.00
19340;HTU21D;9804;52.350;6.684;2022-10-30T06:03:06;14.96;-6.00
19340;HTU21D;9804;52.350;6.684;2022-10-30T06:05:34;14.93;-6.00
19340;HTU21D;9804;52.350;6.684;2022-10-30T06:08:00;14.94;-6.00
19340;HTU21D;9804;52.350;6.684;2022-10-30T06:10:26;14.93;-6.00
19340;HTU21D;9804;52.350;6.684;2022-10-30T06:12:59;15.03;-6.00
19340;HTU21D;9804;52.350;6.684;2022-10-30T06:15:26;15.12;-6.00
19340;HTU21D;9804;52.350;6.684;2022-10-30T06:17:52;15.13;-6.00
19340;HTU21D;9804;52.350;6.684;2022-10-30T06:20:19;15.01;-6.00
19340;HTU21D;9804;52.350;6.684;2022-10-30T06:25:20;14.98;-6.00
19340;HTU21D;9804;52.350;6.684;2022-10-30T06:27:45;15.02;-6.00
19340;HTU21D;9804;52.350;6.684;2022-10-30T06:30:11;14.98;-6.00
19340;HTU21D;9804;52.350;6.684;2022-10-30T06:32:36;14.88;-6.00
19340;HTU21D;9804;52.350;6.684;2022-10-30T06:35:02;14.81;-6.00
19340;HTU21D;9804;52.350;6.684;2022-10-30T06:37:27;14.78;-6.00
19340;HTU21D;9804;52.350;6.684;2022-10-30T06:39:53;14.77;-6.00
19340;HTU21D;9804;52.350;6.684;2022-10-30T06:42:18;14.71;-6.00
19340;HTU21D;9804;52.350;6.684;2022-10-30T06:44:43;14.75;-6.00
19340;HTU21D;9804;52.350;6.684;2022-10-30T06:47:09;14.74;-6.00
19340;HTU21D;9804;52.350;6.684;2022-10-30T06:49:34;14.70;-6.00
19340;HTU21D;9804;52.350;6.684;2022-10-30T06:51:59;14.67;-6.00
19340;HTU21D;9804;52.350;6.684;2022-10-30T06:54:25;14.71;-6.00
19340;HTU21D;9804;52.350;6.684;2022-10-30T06:56:50;14.80;-6.00
19340;HTU21D;9804;52.350;6.684;2022-10-30T06:59:15;14.83;-6.00
19340;HTU21D;9804;52.350;6.684;2022-10-30T07:01:41;14.85;-6.00
19340;HTU21D;9804;52.350;6.684;2022-10-30T07:04:06;14.81;-6.00
19340;HTU21D;9804;52.350;6.684;2022-10-30T07:06:31;14.89;-6.00
19340;HTU21D;9804;52.350;6.684;2022-10-30T07:08:57;14.94;-6.00
19340;HTU21D;9804;52.350;6.684;2022-10-30T07:11:22;15.00;-6.00
19340;HTU21D;9804;52.350;6.684;2022-10-30T07:13:47;15.04;-6.00
19340;HTU21D;9804;52.350;6.684;2022-10-30T07:16:13;15.12;-6.00
19340;HTU21D;9804;52.350;6.684;2022-10-30T07:18:38;15.17;-6.00
19340;HTU21D;9804;52.350;6.684;2022-10-30T07:21:04;15.23;-6.00
19340;HTU21D;9804;52.350;6.684;2022-10-30T07:23:29;15.23;-6.00
19340;HTU21D;9804;52.350;6.684;2022-10-30T07:25:54;15.29;-6.00
19340;HTU21D;9804;52.350;6.684;2022-10-30T07:28:20;15.37;-6.00
19340;HTU21D;9804;52.350;6.684;2022-10-30T07:30:45;15.45;-6.00
19340;HTU21D;9804;52.350;6.684;2022-10-30T07:33:10;15.52;-6.00
19340;HTU21D;9804;52.350;6.684;2022-10-30T07:35:36;15.55;-6.00
19340;HTU21D;9804;52.350;6.684;2022-10-30T07:38:03;15.59;-6.00
19340;HTU21D;9804;52.350;6.684;2022-10-30T07:40:29;15.71;-6.00
19340;HTU21D;9804;52.350;6.684;2022-10-30T07:42:55;15.77;-6.00
19340;HTU21D;9804;52.350;6.684;2022-10-30T07:45:21;15.89;-6.00
19340;HTU21D;9804;52.350;6.684;2022-10-30T07:47:47;15.92;-6.00
19340;HTU21D;9804;52.350;6.684;2022-10-30T07:50:12;15.99;-6.00
19340;HTU21D;9804;52.350;6.684;2022-10-30T07:52:37;16.03;-6.00
19340;HTU21D;9804;52.350;6.684;2022-10-30T07:55:03;16.08;-6.00
19340;HTU21D;9804;52.350;6.684;2022-10-30T07:57:36;16.16;-6.00
19340;HTU21D;9804;52.350;6.684;2022-10-30T08:00:06;16.20;-6.00
19340;HTU21D;9804;52.350;6.684;2022-10-30T08:02:31;16.22;-6.00
19340;HTU21D;9804;52.350;6.684;2022-10-30T08:04:57;16.32;-6.00
19340;HTU21D;9804;52.350;6.684;2022-10-30T08:07:22;16.41;-6.00
19340;HTU21D;9804;52.350;6.684;2022-10-30T08:09:47;16.49;-6.00
19340;HTU21D;9804;52.350;6.684;2022-10-30T08:12:14;16.57;-6.00
19340;HTU21D;9804;52.350;6.684;2022-10-30T08:14:39;16.69;-6.00
19340;HTU21D;9804;52.350;6.684;2022-10-30T08:17:04;16.76;-6.00
19340;HTU21D;9804;52.350;6.684;2022-10-30T08:19:31;16.80;-6.00
19340;HTU21D;9804;52.350;6.684;2022-10-30T08:21:57;16.85;-6.00
19340;HTU21D;9804;52.350;6.684;2022-10-30T08:24:22;16.93;-6.00
19340;HTU21D;9804;52.350;6.684;2022-10-30T08:26:50;16.99;-6.00
19340;HTU21D;9804;52.350;6.684;2022-10-30T08:29:16;17.13;-6.00
19340;HTU21D;9804;52.350;6.684;2022-10-30T08:31:41;17.17;-6.00
19340;HTU21D;9804;52.350;6.684;2022-10-30T08:34:06;17.14;-6.00
19340;HTU21D;9804;52.350;6.684;2022-10-30T08:36:33;17.24;-6.00
19340;HTU21D;9804;52.350;6.684;2022-10-30T08:39:00;17.30;-6.00
19340;HTU21D;9804;52.350;6.684;2022-10-30T08:41:28;17.37;-6.00
19340;HTU21D;9804;52.350;6.684;2022-10-30T08:43:53;17.46;-6.00
19340;HTU21D;9804;52.350;6.684;2022-10-30T08:46:18;17.46;-6.00
19340;HTU21D;9804;52.350;6.684;2022-10-30T08:48:43;17.59;-6.00
19340;HTU21D;9804;52.350;6.684;2022-10-30T08:51:09;17.59;-6.00
19340;HTU21D;9804;52.350;6.684;2022-10-30T08:53:34;17.54;-6.00
19340;HTU21D;9804;52.350;6.684;2022-10-30T08:55:59;17.68;-6.00
19340;HTU21D;9804;52.350;6.684;2022-10-30T08:58:25;17.76;-6.00
19340;HTU21D;9804;52.350;6.684;2022-10-30T09:00:50;17.72;-6.00
19340;HTU21D;9804;52.350;6.684;2022-10-30T09:03:15;17.79;-6.00
19340;HTU21D;9804;52.350;6.684;2022-10-30T09:05:41;18.00;-6.00
19340;HTU21D;9804;52.350;6.684;2022-10-30T09:08:06;18.03;-6.00
19340;HTU21D;9804;52.350;6.684;2022-10-30T09:10:32;18.05;-6.00
19340;HTU21D;9804;52.350;6.684;2022-10-30T09:12:58;18.27;-6.00
19340;HTU21D;9804;52.350;6.684;2022-10-30T09:15:24;18.38;-6.00
19340;HTU21D;9804;52.350;6.684;2022-10-30T09:17:58;18.36;-6.00
19340;HTU21D;9804;52.350;6.684;2022-10-30T09:20:23;18.41;-6.00
19340;HTU21D;9804;52.350;6.684;2022-10-30T09:22:49;18.48;-6.00
19340;HTU21D;9804;52.350;6.684;2022-10-30T09:25:14;18.54;-6.00
19340;HTU21D;9804;52.350;6.684;2022-10-30T09:27:41;18.59;-6.00
19340;HTU21D;9804;52.350;6.684;2022-10-30T09:30:07;18.77;-6.00
19340;HTU21D;9804;52.350;6.684;2022-10-30T09:32:32;18.91;-6.00
19340;HTU21D;9804;52.350;6.684;2022-10-30T09:34:58;18.97;-6.00
19340;HTU21D;9804;52.350;6.684;2022-10-30T09:37:23;19.08;-6.00
19340;HTU21D;9804;52.350;6.684;2022-10-30T09:39:49;19.15;-6.00
19340;HTU21D;9804;52.350;6.684;2022-10-30T09:42:19;19.37;-6.00
19340;HTU21D;9804;52.350;6.684;2022-10-30T09:48:27;19.31;-6.00
19340;HTU21D;9804;52.350;6.684;2022-10-30T09:51:19;19.60;-6.00
19340;HTU21D;9804;52.350;6.684;2022-10-30T09:53:56;19.61;-6.00
19340;HTU21D;9804;52.350;6.684;2022-10-30T09:56:45;19.72;-6.00
19340;HTU21D;9804;52.350;6.684;2022-10-30T09:59:34;19.76;-6.00
19340;HTU21D;9804;52.350;6.684;2022-10-30T10:04:57;19.55;-6.00
19340;HTU21D;9804;52.350;6.684;2022-10-30T10:07:30;19.91;-6.00
19340;HTU21D;9804;52.350;6.684;2022-10-30T10:10:03;20.02;-6.00
19340;HTU21D;9804;52.350;6.684;2022-10-30T10:12:37;20.04;-6.00
19340;HTU21D;9804;52.350;6.684;2022-10-30T10:15:10;20.07;-6.00
19340;HTU21D;9804;52.350;6.684;2022-10-30T10:17:40;20.13;-6.00
19340;HTU21D;9804;52.350;6.684;2022-10-30T10:20:26;20.05;-6.00
19340;HTU21D;9804;52.350;6.684;2022-10-30T10:22:54;20.02;-6.00
19340;HTU21D;9804;52.350;6.684;2022-10-30T10:25:22;20.11;-6.00
19340;HTU21D;9804;52.350;6.684;2022-10-30T10:33:27;20.41;-6.00
19340;HTU21D;9804;52.350;6.684;2022-10-30T10:36:15;20.50;-6.00
19340;HTU21D;9804;52.350;6.684;2022-10-30T10:41:17;20.73;-6.00
19340;HTU21D;9804;52.350;6.684;2022-10-30T10:44:14;20.79;-6.00
19340;HTU21D;9804;52.350;6.684;2022-10-30T10:46:59;20.99;-6.00
19340;HTU21D;9804;52.350;6.684;2022-10-30T10:52:37;21.03;-6.00
19340;HTU21D;9804;52.350;6.684;2022-10-30T10:55:12;21.07;-6.00
19340;HTU21D;9804;52.350;6.684;2022-10-30T10:57:40;21.23;-6.00
19340;HTU21D;9804;52.350;6.684;2022-10-30T11:00:17;21.40;-6.00
19340;HTU21D;9804;52.350;6.684;2022-10-30T11:02:57;21.35;-6.00
19340;HTU21D;9804;52.350;6.684;2022-10-30T11:05:47;21.55;-6.00
19340;HTU21D;9804;52.350;6.684;2022-10-30T11:08:20;21.59;-6.00
19340;HTU21D;9804;52.350;6.684;2022-10-30T11:10:50;21.63;-6.00
19340;HTU21D;9804;52.350;6.684;2022-10-30T11:13:17;21.65;-6.00
19340;HTU21D;9804;52.350;6.684;2022-10-30T11:15:49;21.49;-6.00
19340;HTU21D;9804;52.350;6.684;2022-10-30T11:18:16;21.64;-6.00
19340;HTU21D;9804;52.350;6.684;2022-10-30T11:21:03;21.91;-6.00
19340;HTU21D;9804;52.350;6.684;2022-10-30T11:23:46;21.87;-6.00
19340;HTU21D;9804;52.350;6.684;2022-10-30T11:28:49;22.06;-6.00
19340;HTU21D;9804;52.350;6.684;2022-10-30T11:31:28;22.04;-6.00
19340;HTU21D;9804;52.350;6.684;2022-10-30T11:36:47;22.22;-6.00
19340;HTU21D;9804;52.350;6.684;2022-10-30T11:39:24;22.28;-6.00
19340;HTU21D;9804;52.350;6.684;2022-10-30T11:44:27;22.36;-6.00
19340;HTU21D;9804;52.350;6.684;2022-10-30T11:46:53;22.34;-6.00
19340;HTU21D;9804;52.350;6.684;2022-10-30T11:49:39;22.40;-6.00
19340;HTU21D;9804;52.350;6.684;2022-10-30T11:52:07;22.44;-6.00
19340;HTU21D;9804;52.350;6.684;2022-10-30T11:54:39;22.40;-6.00
19340;HTU21D;9804;52.350;6.684;2022-10-30T11:57:20;22.56;-6.00
19340;HTU21D;9804;52.350;6.684;2022-10-30T11:59:46;22.69;-6.00
19340;HTU21D;9804;52.350;6.684;2022-10-30T12:02:26;22.55;-6.00
19340;HTU21D;9804;52.350;6.684;2022-10-30T12:04:54;22.56;-6.00
19340;HTU21D;9804;52.350;6.684;2022-10-30T12:09:49;22.71;-6.00
19340;HTU21D;9804;52.350;6.684;2022-10-30T12:12:21;22.33;-6.00
19340;HTU21D;9804;52.350;6.684;2022-10-30T12:14:48;22.69;-6.00
19340;HTU21D;9804;52.350;6.684;2022-10-30T12:17:15;22.90;-6.00
19340;HTU21D;9804;52.350;6.684;2022-10-30T12:19:52;22.92;-6.00
19340;HTU21D;9804;52.350;6.684;2022-10-30T12:22:30;22.73;-6.00
19340;HTU21D;9804;52.350;6.684;2022-10-30T12:24:58;22.75;-6.00
19340;HTU21D;9804;52.350;6.684;2022-10-30T12:27:24;23.15;-6.00
19340;HTU21D;9804;52.350;6.684;2022-10-30T12:30:14;23.02;-6.00
19340;HTU21D;9804;52.350;6.684;2022-10-30T12:38:16;23.41;-6.00
19340;HTU21D;9804;52.350;6.684;2022-10-30T12:40:55;23.57;-6.00
19340;HTU21D;9804;52.350;6.684;2022-10-30T12:43:25;23.35;-6.00
19340;HTU21D;9804;52.350;6.684;2022-10-30T12:45:55;23.14;-6.00
19340;HTU21D;9804;52.350;6.684;2022-10-30T12:48:36;23.14;-6.00
19340;HTU21D;9804;52.350;6.684;2022-10-30T12:51:22;23.00;-6.00
19340;HTU21D;9804;52.350;6.684;2022-10-30T12:53:59;22.87;-6.00
19340;HTU21D;9804;52.350;6.684;2022-10-30T12:56:37;22.84;-6.00
19340;HTU21D;9804;52.350;6.684;2022-10-30T12:59:41;22.61;-6.00
19340;HTU21D;9804;52.350;6.684;2022-10-30T13:02:28;22.96;-6.00
19340;HTU21D;9804;52.350;6.684;2022-10-30T13:05:00;22.88;-6.00
19340;HTU21D;9804;52.350;6.684;2022-10-30T13:07:38;22.93;-6.00
19340;HTU21D;9804;52.350;6.684;2022-10-30T13:10:31;23.12;-6.00
19340;HTU21D;9804;52.350;6.684;2022-10-30T13:13:08;23.02;-6.00
19340;HTU21D;9804;52.350;6.684;2022-10-30T13:15:39;23.16;-6.00
19340;HTU21D;9804;52.350;6.684;2022-10-30T13:18:25;23.08;-6.00
19340;HTU21D;9804;52.350;6.684;2022-10-30T13:24:11;22.88;-6.00
19340;HTU21D;9804;52.350;6.684;2022-10-30T13:27:01;23.09;-6.00
19340;HTU21D;9804;52.350;6.684;2022-10-30T13:29:51;23.36;-6.00
19340;HTU21D;9804;52.350;6.684;2022-10-30T13:32:40;23.34;-6.00
19340;HTU21D;9804;52.350;6.684;2022-10-30T13:35:22;23.17;-6.00
19340;HTU21D;9804;52.350;6.684;2022-10-30T13:40:38;23.07;-6.00
19340;HTU21D;9804;52.350;6.684;2022-10-30T13:54:30;22.86;-6.00
19340;HTU21D;9804;52.350;6.684;2022-10-30T13:57:03;22.96;-6.00
19340;HTU21D;9804;52.350;6.684;2022-10-30T13:59:51;22.87;-6.00
19340;HTU21D;9804;52.350;6.684;2022-10-30T14:05:36;22.81;-6.00
19340;HTU21D;9804;52.350;6.684;2022-10-30T14:08:21;22.73;-6.00
19340;HTU21D;9804;52.350;6.684;2022-10-30T14:10:56;22.81;-6.00
19340;HTU21D;9804;52.350;6.684;2022-10-30T14:13:24;22.80;-6.00
19340;HTU21D;9804;52.350;6.684;2022-10-30T14:16:00;22.88;-6.00
19340;HTU21D;9804;52.350;6.684;2022-10-30T14:21:35;22.85;-6.00
19340;HTU21D;9804;52.350;6.684;2022-10-30T14:24:03;22.99;-6.00
19340;HTU21D;9804;52.350;6.684;2022-10-30T14:26:29;23.20;-6.00
19340;HTU21D;9804;52.350;6.684;2022-10-30T14:28:55;23.26;-6.00
19340;HTU21D;9804;52.350;6.684;2022-10-30T14:31:35;23.41;-6.00
19340;HTU21D;9804;52.350;6.684;2022-10-30T14:34:00;23.57;-6.00
19340;HTU21D;9804;52.350;6.684;2022-10-30T14:39:01;23.56;-6.00
19340;HTU21D;9804;52.350;6.684;2022-10-30T14:51:01;23.08;-6.00
19340;HTU21D;9804;52.350;6.684;2022-10-30T14:53:56;22.88;-6.00
19340;HTU21D;9804;52.350;6.684;2022-10-30T14:56:46;22.94;-6.00
19340;HTU21D;9804;52.350;6.684;2022-10-30T15:05:01;22.34;-6.00
19340;HTU21D;9804;52.350;6.684;2022-10-30T15:08:03;22.18;-6.00
19340;HTU21D;9804;52.350;6.684;2022-10-30T15:10:34;22.03;-6.00
19340;HTU21D;9804;52.350;6.684;2022-10-30T15:15:25;21.78;-6.00
19340;HTU21D;9804;52.350;6.684;2022-10-30T15:17:56;21.65;-6.00
19340;HTU21D;9804;52.350;6.684;2022-10-30T15:20:29;21.49;-6.00
19340;HTU21D;9804;52.350;6.684;2022-10-30T15:22:58;21.36;-6.00
19340;HTU21D;9804;52.350;6.684;2022-10-30T15:25:29;21.25;-6.00
19340;HTU21D;9804;52.350;6.684;2022-10-30T15:27:56;21.13;-6.00
19340;HTU21D;9804;52.350;6.684;2022-10-30T15:30:23;21.09;-6.00
19340;HTU21D;9804;52.350;6.684;2022-10-30T15:32:49;21.04;-6.00
19340;HTU21D;9804;52.350;6.684;2022-10-30T15:38:06;20.85;-6.00
19340;HTU21D;9804;52.350;6.684;2022-10-30T15:40:38;20.79;-6.00
19340;HTU21D;9804;52.350;6.684;2022-10-30T15:43:06;20.72;-6.00
19340;HTU21D;9804;52.350;6.684;2022-10-30T15:45:39;20.63;-6.00
19340;HTU21D;9804;52.350;6.684;2022-10-30T15:48:06;20.55;-6.00
19340;HTU21D;9804;52.350;6.684;2022-10-30T15:50:34;20.47;-6.00
19340;HTU21D;9804;52.350;6.684;2022-10-30T15:53:01;20.44;-6.00
19340;HTU21D;9804;52.350;6.684;2022-10-30T15:55:30;20.37;-6.00
19340;HTU21D;9804;52.350;6.684;2022-10-30T15:57:58;20.27;-6.00
19340;HTU21D;9804;52.350;6.684;2022-10-30T16:00:34;20.20;-6.00
19340;HTU21D;9804;52.350;6.684;2022-10-30T16:03:01;20.15;-6.00
19340;HTU21D;9804;52.350;6.684;2022-10-30T16:05:27;19.92;-6.00
19340;HTU21D;9804;52.350;6.684;2022-10-30T16:07:58;19.94;-6.00
19340;HTU21D;9804;52.350;6.684;2022-10-30T16:10:26;19.91;-6.00
19340;HTU21D;9804;52.350;6.684;2022-10-30T16:12:56;19.86;-6.00
19340;HTU21D;9804;52.350;6.684;2022-10-30T16:15:30;19.74;-6.00
19340;HTU21D;9804;52.350;6.684;2022-10-30T16:18:14;19.69;-6.00
19340;HTU21D;9804;52.350;6.684;2022-10-30T16:20:43;19.68;-6.00
19340;HTU21D;9804;52.350;6.684;2022-10-30T16:23:09;19.60;-6.00
19340;HTU21D;9804;52.350;6.684;2022-10-30T16:25:36;19.58;-6.00
19340;HTU21D;9804;52.350;6.684;2022-10-30T16:28:04;19.55;-6.00
19340;HTU21D;9804;52.350;6.684;2022-10-30T16:30:31;19.54;-6.00
19340;HTU21D;9804;52.350;6.684;2022-10-30T16:32:58;19.46;-6.00
19340;HTU21D;9804;52.350;6.684;2022-10-30T16:35:24;19.28;-6.00
19340;HTU21D;9804;52.350;6.684;2022-10-30T16:37:51;19.15;-6.00
19340;HTU21D;9804;52.350;6.684;2022-10-30T16:40:22;19.10;-6.00
19340;HTU21D;9804;52.350;6.684;2022-10-30T16:42:59;19.09;-6.00
19340;HTU21D;9804;52.350;6.684;2022-10-30T16:48:00;19.03;-6.00
19340;HTU21D;9804;52.350;6.684;2022-10-30T16:50:32;19.00;-6.00
19340;HTU21D;9804;52.350;6.684;2022-10-30T16:53:04;18.94;-6.00
19340;HTU21D;9804;52.350;6.684;2022-10-30T16:55:30;18.82;-6.00
19340;HTU21D;9804;52.350;6.684;2022-10-30T16:57:57;18.72;-6.00
19340;HTU21D;9804;52.350;6.684;2022-10-30T17:00:25;18.69;-6.00
19340;HTU21D;9804;52.350;6.684;2022-10-30T17:02:52;18.59;-6.00
19340;HTU21D;9804;52.350;6.684;2022-10-30T17:05:24;18.61;-6.00
19340;HTU21D;9804;52.350;6.684;2022-10-30T17:08:04;18.50;-6.00
19340;HTU21D;9804;52.350;6.684;2022-10-30T17:10:56;18.47;-6.00
19340;HTU21D;9804;52.350;6.684;2022-10-30T17:16:17;18.35;-6.00
19340;HTU21D;9804;52.350;6.684;2022-10-30T17:18:45;18.36;-6.00
19340;HTU21D;9804;52.350;6.684;2022-10-30T17:21:12;18.36;-6.00
19340;HTU21D;9804;52.350;6.684;2022-10-30T17:23:49;18.38;-6.00
19340;HTU21D;9804;52.350;6.684;2022-10-30T17:26:16;18.35;-6.00
19340;HTU21D;9804;52.350;6.684;2022-10-30T17:28:43;18.29;-6.00
19340;HTU21D;9804;52.350;6.684;2022-10-30T17:34:17;18.28;-6.00
19340;HTU21D;9804;52.350;6.684;2022-10-30T17:36:47;18.27;-6.00
19340;HTU21D;9804;52.350;6.684;2022-10-30T17:39:13;18.24;-6.00
19340;HTU21D;9804;52.350;6.684;2022-10-30T17:41:39;18.20;-6.00
19340;HTU21D;9804;52.350;6.684;2022-10-30T17:44:05;18.22;-6.00
19340;HTU21D;9804;52.350;6.684;2022-10-30T17:46:30;18.22;-6.00